Bandara International Lombok Airport


Codes: WADL/LOP
Name: Bandara International Lombok Airport
City: Mataram
Country: Indonesia
Elevation: 319 ft.
Website:
Wikipedia:

Photos at Bandara International Lombok Airport


   Photos courtesy of SpottingLog. You can add your own sightings and photos by signing up for a free trial today.



No photos found.

Weather at Bandara International Lombok Airport


Time (UTC)DescriptionTempratureWindCloud coverageVisibilityPressureHumidity
15-Apr-2024 18:00Light Rain27°C4 mph, E40%10000m1013hPa89%
15-Apr-2024 21:00Light Rain26°C2 mph, E59%10000m1012hPa90%
16-Apr-2024 00:00Broken Clouds27°C7 mph, E69%10000m1012hPa86%
16-Apr-2024 03:00Broken Clouds30°C11 mph, SE70%10000m1011hPa71%
16-Apr-2024 06:00Light Rain30°C16 mph, SE84%10000m1008hPa70%
16-Apr-2024 09:00Light Rain27°C13 mph, SE100%10000m1008hPa85%
16-Apr-2024 12:00Overcast Clouds26°C9 mph, SE100%10000m1010hPa86%
16-Apr-2024 15:00Light Rain25°C4 mph, SE95%10000m1011hPa93%
16-Apr-2024 18:00Light Rain25°C2 mph, E98%10000m1009hPa92%
16-Apr-2024 21:00Light Rain24°C2 mph, NE95%10000m1009hPa92%
17-Apr-2024 00:00Light Rain27°C2 mph, E82%10000m1011hPa79%
17-Apr-2024 03:00Light Rain30°C9 mph, SE50%10000m1010hPa70%
17-Apr-2024 06:00Moderate Rain30°C11 mph, SE54%10000m1007hPa74%
17-Apr-2024 09:00Moderate Rain27°C4 mph, SE99%3636m1008hPa84%
17-Apr-2024 12:00Moderate Rain25°C2 mph, E100%9532m1010hPa92%
17-Apr-2024 15:00Light Rain25°C4 mph, E97%10000m1011hPa90%
17-Apr-2024 18:00Light Rain25°C2 mph, SE98%10000m1009hPa90%
17-Apr-2024 21:00Light Rain24°C2 mph, SE89%10000m1009hPa91%
18-Apr-2024 00:00Light Rain27°C4 mph, E62%10000m1011hPa84%
18-Apr-2024 03:00Light Rain30°C11 mph, SE72%10000m1010hPa72%
18-Apr-2024 06:00Light Rain30°C13 mph, SE55%10000m1008hPa72%
18-Apr-2024 09:00Light Rain28°C9 mph, SE86%10000m1007hPa82%
18-Apr-2024 12:00Moderate Rain25°C7 mph, SE93%10000m1010hPa90%
18-Apr-2024 15:00Overcast Clouds25°C4 mph, SE99%10000m1010hPa91%
18-Apr-2024 18:00Overcast Clouds25°C2 mph, E92%10000m1008hPa92%
18-Apr-2024 21:00Light Rain24°C2 mph, E67%10000m1008hPa92%
19-Apr-2024 00:00Light Rain27°C4 mph, E83%10000m1009hPa84%
19-Apr-2024 03:00Overcast Clouds30°C9 mph, SE100%10000m1009hPa72%
19-Apr-2024 06:00Light Rain30°C11 mph, SE100%9554m1007hPa74%
19-Apr-2024 09:00Moderate Rain28°C7 mph, SE100%10000m1007hPa84%
19-Apr-2024 12:00Light Rain25°C2 mph, SE100%10000m1009hPa91%
19-Apr-2024 15:00Light Rain25°C2 mph, E49%10000m1010hPa91%
19-Apr-2024 18:00Broken Clouds25°C2 mph, NE69%10000m1008hPa91%
19-Apr-2024 21:00Overcast Clouds24°C2 mph, NE93%10000m1008hPa91%
20-Apr-2024 00:00Overcast Clouds26°C2 mph, N96%10000m1009hPa84%
20-Apr-2024 03:00Light Rain30°C2 mph, SW100%10000m1009hPa68%
20-Apr-2024 06:00Moderate Rain30°C7 mph, S100%8437m1007hPa73%
20-Apr-2024 09:00Moderate Rain28°C7 mph, SE99%7234m1007hPa84%
20-Apr-2024 12:00Light Rain26°C2 mph, SE93%10000m1009hPa89%
20-Apr-2024 15:00Light Rain25°C2 mph, NE98%10000m1010hPa90%